Time;durP1;ratioP1;P1;durP2;ratioP2;P2;SDS_P1;SDS_P2;PMS_P1;PMS_P2;Temp;Humidity;BMP_temperature;BMP_pressure;BME280_temperature;BME280_humidity;BME280_pressure;Samples;Min_cycle;Max_cycle;Signal;HPM_P1;HPM_P2
2023/06/06 04:27:03;;;;;;;18.27;10.40;;;;;;;11.73;83.38;96642.22;2120472;27;20551;-56
2023/06/06 04:28:06;;;;;;;17.63;7.40;;;;;;;11.79;83.20;96638.47;2114504;28;20527;-56
2023/06/06 06:28:35;;;;;;;5.63;3.50;;;;;;;16.41;69.44;96692.31;2100214;27;20550;-57
2023/06/06 06:30:42;;;;;;;6.53;4.10;;;;;;;16.11;69.34;96699.56;2095099;27;20562;-57
2023/06/06 06:31:44;;;;;;;9.05;4.30;;;;;;;15.78;69.47;96702.56;2090695;28;20314;-56
2023/06/06 06:32:45;;;;;;;11.45;4.72;;;;;;;15.85;70.09;96698.63;2088019;28;20728;-57
2023/06/06 06:33:47;;;;;;;15.10;5.45;;;;;;;16.07;69.83;96698.03;2090278;28;20225;-57
2023/06/06 06:34:48;;;;;;;8.35;3.63;;;;;;;16.43;68.51;96698.31;2084424;28;20224;-57
2023/06/06 06:35:50;;;;;;;5.72;3.55;;;;;;;16.69;67.48;96706.28;2081036;28;20303;-57
2023/06/06 06:36:51;;;;;;;5.72;3.88;;;;;;;16.70;67.71;96705.31;2078363;28;20197;-57
2023/06/06 06:37:53;;;;;;;12.50;3.97;;;;;;;16.97;67.89;96710.50;2079534;28;20194;-57
2023/06/06 06:38:54;;;;;;;10.55;3.70;;;;;;;17.38;66.42;96706.75;2080955;28;20193;-57
2023/06/06 06:39:56;;;;;;;7.45;4.10;;;;;;;17.97;64.92;96704.34;2078083;28;20255;-57
2023/06/06 06:40:58;;;;;;;13.25;3.90;;;;;;;17.94;64.47;96713.34;2075741;28;20232;-56
2023/06/06 06:42:00;;;;;;;7.65;4.38;;;;;;;18.40;63.82;96711.75;2079809;28;20204;-57
2023/06/06 06:43:01;;;;;;;7.28;3.30;;;;;;;18.93;62.53;96711.25;2079038;28;20193;-57
2023/06/06 06:44:03;;;;;;;6.47;3.75;;;;;;;18.31;62.55;96713.28;2080836;28;20204;-57
2023/06/06 06:45:04;;;;;;;14.75;3.70;;;;;;;17.36;65.41;96716.56;2083445;28;20633;-57
2023/06/06 06:46:06;;;;;;;14.13;3.60;;;;;;;17.16;66.26;96710.06;2080264;28;20649;-57
2023/06/06 06:47:08;;;;;;;5.38;3.65;;;;;;;17.60;66.04;96710.50;2079349;28;20556;-57
2023/06/06 06:48:09;;;;;;;10.88;3.90;;;;;;;18.20;64.63;96718.50;2080438;28;20192;-57
2023/06/06 06:49:15;;;;;;;7.32;3.67;;;;;;;17.88;64.06;96711.13;2079873;28;20234;-57
2023/06/06 06:51:22;;;;;;;17.42;4.40;;;;;;;17.60;65.70;96718.44;2084168;28;20555;-56
2023/06/06 06:53:37;;;;;;;10.27;3.80;;;;;;;18.34;63.64;96726.25;2089886;28;20544;-57
2023/06/06 06:55:41;;;;;;;7.65;3.45;;;;;;;18.26;63.06;96721.53;2085659;28;21096;-56
2023/06/06 06:57:45;;;;;;;9.40;3.97;;;;;;;19.13;61.13;96707.06;2087188;28;21066;-56
2023/06/06 06:59:50;;;;;;;9.77;4.18;;;;;;;17.72;62.93;96704.31;2084774;28;20882;-57
2023/06/06 07:01:55;;;;;;;12.55;4.32;;;;;;;18.39;61.98;96712.69;2085185;28;20912;-57
2023/06/06 07:04:01;;;;;;;6.90;3.47;;;;;;;19.34;60.02;96715.13;2084084;28;20549;-56
2023/06/06 07:06:07;;;;;;;17.10;3.95;;;;;;;18.96;59.86;96704.88;2076240;28;20560;-57
2023/06/06 07:08:13;;;;;;;6.75;3.25;;;;;;;19.28;60.02;96710.31;2082602;28;20548;-57
2023/06/06 07:10:22;;;;;;;9.13;4.25;;;;;;;18.62;59.92;96715.41;2099820;27;20554;-57
2023/06/06 07:12:29;;;;;;;15.75;3.72;;;;;;;18.49;58.25;96707.56;2100583;27;20559;-57
2023/06/06 07:14:39;;;;;;;13.80;3.85;;;;;;;18.67;58.33;96706.13;2092791;27;20555;-57
2023/06/06 07:16:50;;;;;;;8.82;3.47;;;;;;;18.30;58.14;96684.28;2100170;27;20557;-57
2023/06/06 07:19:02;;;;;;;12.20;4.93;;;;;;;18.75;59.00;96706.41;2100837;27;20540;-57
2023/06/06 07:21:20;;;;;;;9.93;3.70;;;;;;;18.59;58.49;96703.25;2082381;27;20560;-57
2023/06/06 07:23:37;;;;;;;5.55;3.25;;;;;;;19.69;55.75;96707.97;2097881;27;20557;-57
2023/06/06 07:25:59;;;;;;;12.27;3.30;;;;;;;19.47;55.64;96717.63;2082373;28;20564;-57
2023/06/06 07:28:25;;;;;;;6.40;3.30;;;;;;;18.88;56.57;96713.38;2084719;28;20544;-57
2023/06/06 07:30:52;;;;;;;6.55;3.70;;;;;;;18.36;57.15;96710.25;2095804;27;20564;-58
2023/06/06 07:31:54;;;;;;;7.47;3.38;;;;;;;18.39;56.69;96718.81;2088967;28;20185;-58
2023/06/06 07:34:04;;;;;;;11.07;4.15;;;;;;;19.34;56.41;96719.59;2083019;28;20562;-57
2023/06/06 07:35:07;;;;;;;12.77;3.70;;;;;;;19.37;54.71;96701.63;2081033;28;20193;-57
2023/06/06 07:37:34;;;;;;;6.97;2.90;;;;;;;19.00;54.69;96716.94;2118812;27;21072;-58
2023/06/06 07:38:36;;;;;;;8.05;3.08;;;;;;;18.42;55.59;96709.81;2112948;28;20629;-58
2023/06/06 07:39:37;;;;;;;6.40;3.95;;;;;;;18.31;55.73;96712.41;2114420;28;20194;-59
2023/06/06 07:41:55;;;;;;;10.90;3.78;;;;;;;18.48;55.92;96713.81;2082868;28;21080;-56
2023/06/06 07:42:58;;;;;;;11.15;3.72;;;;;;;19.24;55.33;96708.88;2078407;28;20693;-56
2023/06/06 07:44:01;;;;;;;15.52;3.53;;;;;;;19.58;53.85;96714.13;2078754;28;20258;-56
2023/06/06 07:46:32;;;;;;;10.02;3.53;;;;;;;19.31;54.14;96709.22;2091305;28;20563;-57
2023/06/06 07:47:34;;;;;;;8.23;3.05;;;;;;;19.94;53.14;96716.63;2087772;28;20611;-57
2023/06/06 07:48:35;;;;;;;7.18;3.22;;;;;;;20.30;52.99;96709.22;2087313;28;20219;-57
2023/06/06 07:49:37;;;;;;;6.25;3.15;;;;;;;20.17;50.60;96698.81;2088702;28;20196;-57
2023/06/06 07:52:11;;;;;;;6.93;3.90;;;;;;;20.83;50.74;96695.09;2083782;28;20554;-57
2023/06/06 07:53:13;;;;;;;8.70;4.15;;;;;;;20.71;50.72;96703.13;2078622;28;20259;-56
2023/06/06 07:54:14;;;;;;;12.13;3.33;;;;;;;20.98;50.10;96709.69;2078636;28;20200;-57
2023/06/06 07:55:16;;;;;;;10.02;3.75;;;;;;;20.94;49.85;96707.44;2077605;28;20193;-57
2023/06/06 07:56:20;;;;;;;15.57;3.40;;;;;;;20.32;51.21;96700.19;2078700;28;20639;-58
2023/06/06 07:57:21;;;;;;;14.45;3.40;;;;;;;20.63;51.04;96704.72;2081381;28;20196;-58
2023/06/06 07:58:26;;;;;;;6.30;3.08;;;;;;;20.68;50.28;96707.81;2081219;28;20338;-58
2023/06/06 07:59:27;;;;;;;6.88;3.10;;;;;;;20.55;50.34;96705.38;2083134;28;20200;-58
2023/06/06 08:00:29;;;;;;;16.52;3.47;;;;;;;20.34;51.36;96692.94;2079410;28;20205;-58
2023/06/06 08:01:33;;;;;;;11.65;2.65;;;;;;;20.64;51.30;96704.59;2086512;28;20201;-58
2023/06/06 08:02:34;;;;;;;8.57;4.03;;;;;;;20.73;51.31;96696.88;2085951;28;20640;-58
2023/06/06 08:03:36;;;;;;;11.10;3.40;;;;;;;21.30;50.50;96703.41;2084511;28;20201;-59
2023/06/06 08:04:39;;;;;;;8.90;3.40;;;;;;;21.32;49.85;96698.81;2088227;28;20199;-58
2023/06/06 08:05:40;;;;;;;5.90;2.90;;;;;;;21.65;49.23;96707.47;2089376;28;20220;-58
2023/06/06 08:06:42;;;;;;;5.22;2.70;;;;;;;21.61;48.64;96707.88;2087237;28;20313;-59
2023/06/06 08:07:44;;;;;;;5.13;2.70;;;;;;;21.61;49.22;96699.91;2089807;28;20615;-58
2023/06/06 08:08:48;;;;;;;8.15;3.60;;;;;;;21.63;49.24;96700.63;2091029;28;20200;-58
2023/06/06 08:09:49;;;;;;;5.57;2.55;;;;;;;21.86;48.84;96706.53;2087574;28;20651;-58
2023/06/06 08:10:51;;;;;;;8.95;3.10;;;;;;;21.12;50.04;96705.84;2088419;28;20236;-58
2023/06/06 08:11:52;;;;;;;5.22;3.10;;;;;;;21.47;49.26;96701.94;2091801;28;20322;-58
2023/06/06 08:12:54;;;;;;;8.80;3.83;;;;;;;21.28;49.47;96693.91;2090880;28;20196;-58
2023/06/06 08:13:56;;;;;;;6.82;2.97;;;;;;;21.81;49.03;96704.31;2089018;28;20275;-58
2023/06/06 08:14:57;;;;;;;5.60;2.35;;;;;;;22.24;48.07;96701.38;2088059;28;20664;-58
2023/06/06 08:15:59;;;;;;;5.72;3.10;;;;;;;22.30;48.48;96703.50;2087636;28;20945;-58
2023/06/06 08:17:05;;;;;;;4.10;2.90;;;;;;;22.33;48.14;96704.06;2086918;28;20291;-58
2023/06/06 08:18:07;;;;;;;7.22;3.15;;;;;;;22.44;48.67;96718.22;2085593;28;20250;-58
2023/06/06 08:19:08;;;;;;;6.20;3.53;;;;;;;22.34;47.35;96705.69;2088456;28;20197;-58
2023/06/06 08:20:11;;;;;;;7.65;3.00;;;;;;;22.22;48.26;96708.66;2092022;28;20780;-58
2023/06/06 08:21:14;;;;;;;10.82;3.08;;;;;;;22.33;48.63;96714.69;2090304;28;20212;-59
2023/06/06 08:22:15;;;;;;;4.45;3.17;;;;;;;22.47;48.11;96709.94;2089823;28;20199;-59
2023/06/06 08:23:17;;;;;;;5.90;3.35;;;;;;;22.72;48.02;96710.34;2089576;28;20200;-59
2023/06/06 08:24:18;;;;;;;7.53;3.05;;;;;;;22.63;47.70;96720.00;2088609;28;20342;-59
2023/06/06 08:25:20;;;;;;;5.80;3.15;;;;;;;22.71;47.65;96709.47;2087459;28;20653;-59
2023/06/06 08:26:25;;;;;;;6.72;3.30;;;;;;;22.79;47.86;96719.41;2087722;28;20201;-58
2023/06/06 08:27:26;;;;;;;6.90;3.38;;;;;;;23.00;47.49;96717.38;2087793;28;20200;-58
2023/06/06 08:28:28;;;;;;;5.05;2.97;;;;;;;22.75;46.82;96718.03;2087832;28;20323;-58
2023/06/06 08:29:30;;;;;;;7.72;3.05;;;;;;;22.05;46.54;96710.19;2088224;28;20947;-58
2023/06/06 08:30:31;;;;;;;9.70;4.05;;;;;;;21.89;47.12;96716.91;2089123;28;20589;-60
2023/06/06 08:31:33;;;;;;;10.43;3.85;;;;;;;21.31;48.09;96707.75;2091494;28;20204;-59
2023/06/06 08:32:37;;;;;;;5.47;2.70;;;;;;;21.04;49.39;96709.19;2091759;28;20200;-60
2023/06/06 08:33:41;;;;;;;12.73;2.97;;;;;;;21.32;49.29;96701.47;2091732;28;20200;-59
2023/06/06 08:34:43;;;;;;;5.45;2.75;;;;;;;21.35;48.46;96708.31;2083620;28;20906;-60
2023/06/06 08:35:45;;;;;;;4.43;2.40;;;;;;;21.84;47.76;96711.97;2079703;28;20268;-59
2023/06/06 08:36:47;;;;;;;5.60;2.78;;;;;;;21.22;47.61;96708.56;2085345;28;20546;-58
2023/06/06 08:37:49;;;;;;;11.10;3.17;;;;;;;21.31;48.37;96714.88;2090585;28;20242;-58
2023/06/06 08:38:51;;;;;;;7.38;3.67;;;;;;;20.96;49.50;96713.47;2089229;28;20211;-58
2023/06/06 08:39:52;;;;;;;15.50;3.42;;;;;;;20.75;49.33;96721.44;2089443;28;20306;-58
2023/06/06 08:40:58;;;;;;;15.05;3.40;;;;;;;20.55;49.91;96705.38;2088099;28;20250;-59
2023/06/06 08:41:59;;;;;;;8.25;3.58;;;;;;;20.86;49.77;96721.34;2087935;28;20196;-59
2023/06/06 08:43:01;;;;;;;14.75;3.33;;;;;;;21.42;48.62;96712.13;2084222;28;20260;-58
2023/06/06 08:44:03;;;;;;;9.52;3.83;;;;;;;21.26;48.20;96707.31;2089545;28;20203;-58
2023/06/06 08:45:06;;;;;;;7.63;3.53;;;;;;;21.20;48.20;96702.53;2088832;28;20203;-58
2023/06/06 08:46:08;;;;;;;6.57;2.75;;;;;;;21.64;47.91;96710.28;2089284;28;20232;-58
2023/06/06 08:47:11;;;;;;;16.05;3.15;;;;;;;21.30;47.56;96698.09;2089164;28;20215;-58
2023/06/06 08:48:14;;;;;;;10.48;2.70;;;;;;;21.50;47.72;96711.47;2087427;28;20192;-58
2023/06/06 08:49:21;;;;;;;12.32;2.83;;;;;;;21.88;47.07;96719.66;2089929;28;20196;-58
2023/06/06 08:50:23;;;;;;;8.27;2.75;;;;;;;21.90;46.60;96715.91;2087460;28;20221;-58
2023/06/06 08:51:27;;;;;;;8.82;3.13;;;;;;;22.02;46.38;96709.47;2085223;28;20234;-58
2023/06/06 08:52:29;;;;;;;8.48;3.65;;;;;;;22.57;46.43;96710.75;2085163;28;20260;-59
2023/06/06 08:53:31;;;;;;;8.80;3.20;;;;;;;22.42;45.38;96713.00;2091619;28;20647;-59
2023/06/06 08:54:34;;;;;;;3.72;2.65;;;;;;;22.40;44.45;96714.13;2085206;28;20250;-58
2023/06/06 08:55:37;;;;;;;6.72;2.85;;;;;;;22.68;45.43;96712.44;2084975;28;20228;-58
2023/06/06 08:56:42;;;;;;;5.05;3.08;;;;;;;22.64;45.04;96692.44;2084553;28;20236;-58
2023/06/06 08:57:46;;;;;;;6.55;2.60;;;;;;;23.16;44.46;96718.66;2085179;28;20200;-58
2023/06/06 08:58:51;;;;;;;6.68;3.10;;;;;;;22.96;44.48;96716.00;2088436;28;20454;-58
2023/06/06 08:59:52;;;;;;;6.05;2.80;;;;;;;23.35;44.38;96727.53;2087838;28;20200;-59
2023/06/06 09:00:58;;;;;;;6.93;3.15;;;;;;;23.59;44.73;96725.19;2091086;28;20223;-58
2023/06/06 09:01:59;;;;;;;6.70;2.95;;;;;;;23.92;43.57;96725.59;2088517;28;20196;-58
2023/06/06 09:03:06;;;;;;;3.30;2.53;;;;;;;24.03;43.47;96726.38;2089661;28;20204;-58
2023/06/06 09:04:08;;;;;;;5.63;3.05;;;;;;;24.04;43.49;96718.22;2086555;28;20197;-58
2023/06/06 09:05:11;;;;;;;8.50;3.10;;;;;;;23.58;43.33;96714.66;2085327;28;20197;-58
2023/06/06 09:06:13;;;;;;;7.38;3.20;;;;;;;22.91;43.93;96720.09;2082993;28;20306;-58
2023/06/06 09:07:14;;;;;;;7.30;3.15;;;;;;;22.89;44.40;96719.41;2085297;28;20202;-58
2023/06/06 09:08:19;;;;;;;13.55;2.75;;;;;;;23.07;44.77;96717.66;2082763;28;20204;-58
2023/06/06 09:09:33;;;;;;;10.07;3.47;;;;;;;21.77;46.97;96710.84;2083248;28;20599;-59
2023/06/06 09:10:39;;;;;;;11.13;3.30;;;;;;;22.21;46.22;96714.94;2082793;28;20215;-59
2023/06/06 09:11:43;;;;;;;15.60;3.03;;;;;;;21.52;47.62;96714.81;2085368;28;20238;-59
2023/06/06 09:12:46;;;;;;;14.32;5.15;;;;;;;21.47;48.03;96714.38;2074225;28;20295;-60
2023/06/06 09:13:48;;;;;;;9.45;4.00;;;;;;;21.43;48.87;96707.66;2075905;28;20645;-59
2023/06/06 09:14:49;;;;;;;13.38;3.22;;;;;;;22.38;47.37;96724.09;2084039;28;20704;-60
2023/06/06 09:15:52;;;;;;;9.13;3.80;;;;;;;23.03;47.02;96718.91;2082959;28;20224;-60
2023/06/06 09:16:54;;;;;;;8.88;3.50;;;;;;;23.52;45.78;96717.94;2081857;28;20189;-61
2023/06/06 09:17:55;;;;;;;9.70;2.80;;;;;;;23.20;45.20;96725.38;2083537;28;20201;-59
2023/06/06 09:18:58;;;;;;;5.93;3.30;;;;;;;21.98;47.67;96721.38;2084920;28;20288;-59
2023/06/06 09:19:59;;;;;;;6.45;3.20;;;;;;;22.64;46.37;96719.88;2082299;28;20276;-59
2023/06/06 09:21:02;;;;;;;9.18;3.58;;;;;;;23.42;45.64;96724.13;2082243;28;20310;-57
2023/06/06 09:22:07;;;;;;;6.45;3.20;;;;;;;23.07;46.10;96716.81;2081416;28;20193;-57
2023/06/06 09:23:13;;;;;;;4.97;2.78;;;;;;;23.51;45.66;96711.75;2082195;28;20254;-57
2023/06/06 09:24:16;;;;;;;13.48;3.20;;;;;;;23.69;45.98;96709.13;2082078;28;20713;-57
2023/06/06 09:25:19;;;;;;;8.18;3.00;;;;;;;23.35;45.78;96719.56;2080748;28;20200;-57
2023/06/06 09:26:22;;;;;;;8.30;3.30;;;;;;;23.20;46.08;96720.03;2080413;28;20216;-57
2023/06/06 09:27:28;;;;;;;5.70;2.67;;;;;;;23.91;45.18;96721.25;2079120;28;20254;-57
2023/06/06 09:28:36;;;;;;;10.68;3.47;;;;;;;24.27;44.70;96717.78;2083032;28;20224;-57
2023/06/06 09:29:38;;;;;;;6.63;2.83;;;;;;;24.58;44.33;96712.00;2083763;28;20197;-57
2023/06/06 09:30:40;;;;;;;13.25;3.20;;;;;;;24.93;43.20;96731.66;2083432;28;20217;-57
2023/06/06 09:31:42;;;;;;;6.20;3.17;;;;;;;25.03;43.24;96710.19;2082554;28;20276;-57
2023/06/06 09:32:46;;;;;;;12.52;4.63;;;;;;;24.92;42.98;96720.16;2081131;28;20204;-57
2023/06/06 09:33:53;;;;;;;6.70;3.50;;;;;;;24.93;42.61;96721.81;2083035;28;20333;-58
2023/06/06 09:34:59;;;;;;;7.15;3.20;;;;;;;24.99;41.99;96720.34;2081848;28;20205;-58
2023/06/06 09:36:04;;;;;;;7.97;3.60;;;;;;;25.15;42.16;96719.59;2078522;28;20235;-58
2023/06/06 09:37:05;;;;;;;6.10;2.88;;;;;;;25.05;43.11;96716.19;2077926;28;20580;-59
2023/06/06 09:38:18;;;;;;;4.57;3.13;;;;;;;25.15;42.46;96711.59;2082689;28;20247;-58
2023/06/06 09:39:19;;;;;;;6.93;2.55;;;;;;;25.25;42.74;96715.00;2082321;28;20200;-58
2023/06/06 09:40:21;;;;;;;10.93;3.47;;;;;;;25.38;42.76;96709.25;2081304;28;20196;-58
2023/06/06 09:41:25;;;;;;;5.10;3.25;;;;;;;25.22;41.79;96714.47;2077655;28;20648;-58
2023/06/06 09:42:29;;;;;;;9.43;3.80;;;;;;;25.42;41.86;96723.13;2082239;28;20202;-58
2023/06/06 09:43:34;;;;;;;4.57;2.80;;;;;;;25.61;42.25;96713.16;2079928;28;20188;-58
2023/06/06 09:44:42;;;;;;;10.02;3.40;;;;;;;25.56;40.96;96711.81;2077933;28;20221;-58
2023/06/06 09:45:49;;;;;;;5.15;3.25;;;;;;;25.86;40.97;96720.25;2079771;28;20224;-58
2023/06/06 09:47:03;;;;;;;8.85;3.33;;;;;;;25.84;41.54;96718.75;2079558;28;20243;-58
2023/06/06 09:48:04;;;;;;;6.05;3.30;;;;;;;26.01;41.51;96723.16;2083186;28;20196;-58
2023/06/06 09:49:10;;;;;;;8.85;3.50;;;;;;;26.20;41.64;96724.72;2082507;28;20192;-58
2023/06/06 09:50:14;;;;;;;9.13;3.25;;;;;;;24.87;42.49;96725.09;2083489;28;20339;-58
2023/06/06 09:51:15;;;;;;;11.23;5.20;;;;;;;24.02;44.40;96725.50;2083912;28;20216;-57
2023/06/06 09:52:17;;;;;;;4.35;3.13;;;;;;;24.83;43.40;96721.06;2082959;28;20202;-58
2023/06/06 09:53:25;;;;;;;12.10;4.18;;;;;;;25.03;42.48;96718.22;2084742;28;20331;-58
2023/06/06 09:54:26;;;;;;;6.00;3.80;;;;;;;25.08;42.87;96722.06;2082248;28;20196;-58
2023/06/06 09:55:28;;;;;;;6.93;4.22;;;;;;;24.44;43.24;96724.06;2083686;28;20209;-58
2023/06/06 09:56:30;;;;;;;7.18;3.47;;;;;;;23.99;44.43;96717.81;2083235;28;20608;-57
2023/06/06 09:57:35;;;;;;;9.07;3.45;;;;;;;24.72;43.33;96713.31;2083923;28;20236;-58
2023/06/06 09:58:37;;;;;;;6.70;3.90;;;;;;;25.15;42.38;96718.78;2082656;28;20525;-58
2023/06/06 09:59:38;;;;;;;9.20;3.10;;;;;;;25.61;42.26;96713.16;2083518;28;20283;-58
2023/06/06 10:00:41;;;;;;;13.40;3.63;;;;;;;25.72;43.01;96712.88;2083673;28;20303;-58
2023/06/06 10:01:44;;;;;;;9.75;3.35;;;;;;;25.92;42.31;96721.47;2084610;28;20205;-58
2023/06/06 10:02:47;;;;;;;6.35;3.95;;;;;;;26.29;41.48;96714.88;2082802;28;20228;-58
2023/06/06 10:03:50;;;;;;;4.60;3.65;;;;;;;26.24;41.66;96719.88;2084490;28;20224;-58
2023/06/06 10:04:54;;;;;;;7.28;3.25;;;;;;;26.34;41.18;96698.31;2082756;28;20201;-58
2023/06/06 10:05:56;;;;;;;6.32;2.95;;;;;;;26.34;40.68;96709.84;2082609;28;20630;-58
2023/06/06 10:07:02;;;;;;;6.95;3.90;;;;;;;26.18;41.16;96710.69;2082422;28;20196;-59
2023/06/06 10:08:09;;;;;;;5.57;3.00;;;;;;;26.08;40.71;96716.19;2080336;28;20203;-58
2023/06/06 10:09:11;;;;;;;12.15;4.30;;;;;;;25.91;40.84;96707.25;2083220;28;20220;-58
2023/06/06 10:10:17;;;;;;;7.18;3.05;;;;;;;25.81;41.39;96714.56;2080833;28;20209;-58
2023/06/06 10:11:21;;;;;;;7.60;3.15;;;;;;;26.29;41.12;96708.69;2080365;28;20613;-58
2023/06/06 10:12:30;;;;;;;10.07;3.53;;;;;;;26.32;41.49;96703.84;2082574;28;20200;-57
2023/06/06 10:13:31;;;;;;;5.93;3.42;;;;;;;26.44;41.57;96703.50;2082945;28;20608;-58
2023/06/06 10:14:33;;;;;;;16.67;3.65;;;;;;;26.34;41.22;96706.34;2083696;28;20246;-58
2023/06/06 10:15:36;;;;;;;9.00;3.40;;;;;;;26.04;41.63;96705.94;2081537;28;20256;-58
2023/06/06 10:16:38;;;;;;;4.63;3.22;;;;;;;26.22;41.35;96701.31;2083600;28;20193;-58
2023/06/06 10:17:41;;;;;;;5.20;2.75;;;;;;;26.42;41.63;96698.31;2082422;28;20207;-58
2023/06/06 10:18:46;;;;;;;7.63;3.25;;;;;;;25.89;41.42;96703.91;2082875;28;20208;-58
2023/06/06 10:19:49;;;;;;;5.70;3.63;;;;;;;26.22;41.64;96695.09;2081049;28;20257;-58
2023/06/06 10:20:52;;;;;;;4.68;3.38;;;;;;;26.63;40.50;96695.13;2078153;28;20307;-57
2023/06/06 10:21:55;;;;;;;5.25;3.17;;;;;;;26.37;40.56;96692.63;2078390;28;20229;-58
2023/06/06 10:23:00;;;;;;;5.78;3.38;;;;;;;26.28;41.05;96699.81;2082141;28;20197;-58
2023/06/06 10:24:02;;;;;;;7.40;3.80;;;;;;;25.82;41.93;96696.69;2082560;28;20196;-58
2023/06/06 10:25:08;;;;;;;4.65;3.17;;;;;;;26.09;41.59;96700.94;2082034;28;20551;-57
2023/06/06 10:26:20;;;;;;;5.78;3.28;;;;;;;26.18;40.84;96691.97;2081456;28;20233;-57
2023/06/06 10:27:26;;;;;;;8.43;3.38;;;;;;;26.48;41.01;96694.97;2081413;28;20200;-58
2023/06/06 10:28:31;;;;;;;5.63;3.28;;;;;;;26.29;41.41;96698.81;2084280;28;20200;-58
2023/06/06 10:29:51;;;;;;;5.68;3.50;;;;;;;26.34;41.08;96692.97;2081331;28;20201;-57
2023/06/06 10:31:03;;;;;;;7.00;3.65;;;;;;;26.80;40.82;96697.81;2082452;28;20231;-58
2023/06/06 10:32:15;;;;;;;7.80;3.22;;;;;;;27.11;40.32;96695.25;2084471;28;20568;-59
2023/06/06 10:33:54;;;;;;;6.93;3.75;;;;;;;27.35;40.30;96682.75;2083402;28;20258;-59
2023/06/06 10:34:59;;;;;;;6.85;3.00;;;;;;;27.42;39.89;96694.50;2065574;28;20209;-59
2023/06/06 10:36:03;;;;;;;4.43;2.90;;;;;;;27.48;39.32;96696.50;2082033;28;20607;-59
2023/06/06 10:37:20;;;;;;;5.18;3.10;;;;;;;27.88;39.29;96696.47;2079466;28;20204;-59
2023/06/06 10:38:22;;;;;;;9.27;3.38;;;;;;;27.59;39.80;96689.06;2084456;28;20652;-59
2023/06/06 10:39:25;;;;;;;5.38;3.15;;;;;;;27.61;37.85;96687.88;2082477;28;20201;-59
2023/06/06 10:40:26;;;;;;;6.07;3.70;;;;;;;27.01;38.85;96686.56;2080788;28;20201;-59
2023/06/06 10:41:41;;;;;;;4.78;3.20;;;;;;;26.79;39.03;96694.31;2079515;28;20276;-59
2023/06/06 10:42:42;;;;;;;8.35;3.40;;;;;;;25.63;40.07;96692.47;2080862;28;20192;-59
2023/06/06 10:43:44;;;;;;;6.90;3.30;;;;;;;26.63;39.59;96697.81;2081741;28;20196;-59
2023/06/06 10:44:45;;;;;;;7.13;3.63;;;;;;;27.25;38.90;96696.41;2080232;28;20206;-59
2023/06/06 10:45:49;;;;;;;10.77;3.20;;;;;;;27.66;38.05;96698.09;2077297;28;20237;-59
2023/06/06 10:46:51;;;;;;;8.80;4.03;;;;;;;27.51;37.81;96689.94;2078443;28;20604;-59
2023/06/06 10:48:01;;;;;;;6.30;3.70;;;;;;;27.98;38.02;96690.88;2084070;28;20672;-59
2023/06/06 10:49:06;;;;;;;7.80;3.55;;;;;;;28.11;37.68;96690.31;2081373;28;20208;-59
2023/06/06 10:50:11;;;;;;;5.20;3.60;;;;;;;27.76;37.39;96690.66;2084075;28;20669;-59
2023/06/06 10:51:34;;;;;;;4.28;2.90;;;;;;;28.02;36.23;96689.50;2081041;28;20290;-59
2023/06/06 10:52:56;;;;;;;5.47;3.67;;;;;;;28.15;36.52;96689.78;2081441;28;20201;-59
2023/06/06 10:54:13;;;;;;;6.50;3.50;;;;;;;27.67;37.60;96683.69;2083065;28;20722;-60
2023/06/06 10:55:20;;;;;;;9.55;3.38;;;;;;;28.26;37.94;96687.69;2080091;28;20351;-59
2023/06/06 10:56:32;;;;;;;5.75;3.10;;;;;;;27.14;37.58;96678.81;2080506;28;20297;-59
2023/06/06 10:57:47;;;;;;;5.72;3.45;;;;;;;26.63;39.28;96683.59;2080706;28;20197;-60
2023/06/06 10:58:49;;;;;;;7.70;2.75;;;;;;;27.70;38.55;96688.69;2082661;28;20209;-59
2023/06/06 10:59:51;;;;;;;4.50;3.15;;;;;;;28.09;37.29;96687.81;2082794;28;20217;-59
2023/06/06 11:01:03;;;;;;;5.85;3.10;;;;;;;28.26;36.62;96680.47;2081660;28;20224;-59
2023/06/06 11:02:11;;;;;;;3.97;2.88;;;;;;;28.27;36.01;96686.69;2081752;28;20246;-59
2023/06/06 11:03:16;;;;;;;6.22;2.97;;;;;;;28.44;36.06;96682.88;2082733;28;20282;-59
2023/06/06 11:04:26;;;;;;;4.90;3.05;;;;;;;28.67;36.27;96682.88;2082164;28;20204;-60
2023/06/06 11:05:28;;;;;;;8.00;3.33;;;;;;;28.12;35.15;96679.41;2070307;28;20232;-59
2023/06/06 11:06:29;;;;;;;7.90;3.60;;;;;;;28.22;35.48;96672.97;2073321;28;20205;-59
2023/06/06 11:07:32;;;;;;;6.90;3.20;;;;;;;28.81;35.31;96680.38;2082066;28;20968;-59
2023/06/06 11:08:41;;;;;;;3.95;3.05;;;;;;;28.57;36.06;96676.88;2078328;28;20242;-59
2023/06/06 11:09:42;;;;;;;6.35;3.10;;;;;;;28.96;35.94;96669.66;2081060;28;20895;-59
2023/06/06 11:10:47;;;;;;;4.53;2.70;;;;;;;29.35;35.29;96681.19;2082816;28;20604;-59
2023/06/06 11:11:50;;;;;;;5.33;2.80;;;;;;;29.30;34.49;96679.88;2082079;28;20531;-60
2023/06/06 11:12:53;;;;;;;7.30;3.27;;;;;;;29.16;34.15;96670.75;2080352;28;20610;-60
2023/06/06 11:13:56;;;;;;;6.63;2.93;;;;;;;29.13;33.98;96673.84;2081010;28;20701;-60
2023/06/06 11:15:06;;;;;;;16.70;2.87;;;;;;;29.40;33.49;96674.22;2081065;28;20945;-60
2023/06/06 11:16:08;;;;;;;7.27;3.00;;;;;;;28.63;34.11;96664.56;2081447;28;20497;-60
2023/06/06 11:17:11;;;;;;;5.80;3.27;;;;;;;28.21;35.19;96664.06;2081911;28;20487;-60
2023/06/06 11:18:12;;;;;;;4.60;3.17;;;;;;;28.46;35.34;96659.34;2082734;28;20547;-60
2023/06/06 11:19:17;;;;;;;4.40;2.97;;;;;;;28.47;35.85;96668.25;2082076;28;20438;-59
2023/06/06 11:20:21;;;;;;;7.33;3.17;;;;;;;28.89;34.91;96668.72;2080192;28;20904;-59
2023/06/06 11:21:24;;;;;;;6.37;3.23;;;;;;;29.11;34.66;96662.41;2074878;28;20509;-60
2023/06/06 11:22:26;;;;;;;4.30;2.63;;;;;;;28.94;35.07;96669.84;2074067;28;20439;-60
2023/06/06 11:23:40;;;;;;;5.17;3.27;;;;;;;29.05;35.77;96665.88;2082508;28;20504;-59
2023/06/06 11:24:42;;;;;;;5.87;3.33;;;;;;;29.47;34.90;96659.00;2082787;28;20426;-60
2023/06/06 11:25:44;;;;;;;8.03;3.40;;;;;;;29.23;35.13;96657.44;2083212;28;20454;-60
2023/06/06 11:26:47;;;;;;;6.77;3.60;;;;;;;29.47;34.63;96658.16;2077504;28;20437;-59
2023/06/06 11:27:49;;;;;;;13.47;3.30;;;;;;;29.41;34.50;96653.56;2082300;28;20429;-60
2023/06/06 11:28:51;;;;;;;7.30;3.17;;;;;;;29.56;34.54;96662.44;2084600;28;20465;-60
2023/06/06 11:29:53;;;;;;;4.23;2.87;;;;;;;29.44;35.74;96651.31;2085151;28;20491;-59
2023/06/06 11:30:56;;;;;;;7.93;3.17;;;;;;;29.67;35.45;96663.78;2084558;28;21237;-60
2023/06/06 11:32:02;;;;;;;6.40;2.73;;;;;;;29.01;34.53;96656.50;2081258;28;20453;-59
2023/06/06 11:33:09;;;;;;;7.73;3.30;;;;;;;29.24;34.93;96651.03;2082423;28;20425;-59
2023/06/06 11:34:10;;;;;;;4.30;2.70;;;;;;;29.43;34.44;96652.34;2081240;28;20607;-59
2023/06/06 11:35:20;;;;;;;4.90;3.20;;;;;;;29.25;34.31;96652.69;2081013;28;20429;-60
2023/06/06 11:36:22;;;;;;;8.83;4.03;;;;;;;29.08;34.98;96654.75;2082679;28;20983;-60
2023/06/06 11:37:23;;;;;;;13.30;8.67;;;;;;;29.16;34.83;96670.75;2081578;28;20435;-60
2023/06/06 11:38:25;;;;;;;7.47;4.07;;;;;;;28.67;35.55;96653.31;2083875;28;20991;-60
2023/06/06 11:39:28;;;;;;;5.40;3.03;;;;;;;28.12;35.49;96655.25;2082420;28;20524;-59
2023/06/06 11:40:30;;;;;;;5.67;3.20;;;;;;;27.43;36.84;96653.28;2081596;28;20422;-59
2023/06/06 11:41:41;;;;;;;9.67;2.67;;;;;;;28.10;35.86;96661.81;2081252;28;20433;-59
2023/06/06 11:42:44;;;;;;;4.87;2.63;;;;;;;28.87;34.30;96657.31;2079232;28;20433;-59
2023/06/06 11:43:50;;;;;;;5.50;2.80;;;;;;;29.03;33.81;96650.94;2081162;28;20426;-59
2023/06/06 11:44:51;;;;;;;5.33;3.07;;;;;;;29.28;33.35;96656.88;2079700;28;20515;-59
2023/06/06 11:46:03;;;;;;;11.67;2.70;;;;;;;29.25;32.38;96660.75;2080660;28;20463;-59
2023/06/06 11:47:08;;;;;;;6.60;3.07;;;;;;;29.63;32.92;96659.81;2081955;28;20422;-60
2023/06/06 11:48:25;;;;;;;5.37;2.77;;;;;;;29.55;33.35;96660.75;2083190;28;20922;-60
2023/06/06 11:49:26;;;;;;;10.20;3.03;;;;;;;29.93;32.81;96654.41;2080073;28;20429;-60
2023/06/06 11:50:28;;;;;;;6.13;2.83;;;;;;;29.63;32.92;96651.75;2078280;28;20418;-60
2023/06/06 11:51:30;;;;;;;4.00;2.70;;;;;;;29.49;33.13;96648.06;2080314;28;21086;-60
2023/06/06 11:52:31;;;;;;;6.00;2.93;;;;;;;29.74;33.82;96661.19;2081362;28;20421;-59
2023/06/06 11:53:33;;;;;;;4.90;2.53;;;;;;;29.71;32.85;96654.34;2080091;28;20937;-59
2023/06/06 11:54:35;;;;;;;6.07;3.20;;;;;;;30.18;32.51;96659.41;2079898;28;20425;-60
2023/06/06 11:55:38;;;;;;;5.77;2.70;;;;;;;30.44;32.30;96661.50;2081958;28;20509;-60